sensor_id;sensor_type;location;lat;lon;timestamp;P1;durP1;ratioP1;P2;durP2;ratioP2
76881;SDS011;65847;50.998;11.318;2022-12-13T00:00:44;5.38;;;3.67;;
76881;SDS011;65847;50.998;11.318;2022-12-13T00:03:10;4.82;;;3.75;;
76881;SDS011;65847;50.998;11.318;2022-12-13T00:05:41;4.90;;;3.92;;
76881;SDS011;65847;50.998;11.318;2022-12-13T00:08:07;5.90;;;4.35;;
76881;SDS011;65847;50.998;11.318;2022-12-13T00:10:33;4.80;;;3.72;;
76881;SDS011;65847;50.998;11.318;2022-12-13T00:12:59;3.85;;;3.35;;
76881;SDS011;65847;50.998;11.318;2022-12-13T00:15:25;4.30;;;3.65;;
76881;SDS011;65847;50.998;11.318;2022-12-13T00:17:51;4.28;;;3.47;;
76881;SDS011;65847;50.998;11.318;2022-12-13T00:20:17;4.43;;;3.45;;
76881;SDS011;65847;50.998;11.318;2022-12-13T00:22:43;5.05;;;3.22;;
76881;SDS011;65847;50.998;11.318;2022-12-13T00:25:09;4.68;;;3.85;;
76881;SDS011;65847;50.998;11.318;2022-12-13T00:27:36;4.07;;;3.67;;
76881;SDS011;65847;50.998;11.318;2022-12-13T00:30:02;3.42;;;3.13;;
76881;SDS011;65847;50.998;11.318;2022-12-13T00:32:28;4.18;;;3.22;;
76881;SDS011;65847;50.998;11.318;2022-12-13T00:34:54;5.75;;;3.25;;
76881;SDS011;65847;50.998;11.318;2022-12-13T00:37:20;3.50;;;3.17;;
76881;SDS011;65847;50.998;11.318;2022-12-13T00:39:46;5.20;;;3.25;;
76881;SDS011;65847;50.998;11.318;2022-12-13T00:42:12;4.35;;;2.90;;
76881;SDS011;65847;50.998;11.318;2022-12-13T00:44:38;4.25;;;3.60;;
76881;SDS011;65847;50.998;11.318;2022-12-13T00:47:04;4.45;;;3.65;;
76881;SDS011;65847;50.998;11.318;2022-12-13T00:49:30;4.43;;;3.70;;
76881;SDS011;65847;50.998;11.318;2022-12-13T00:51:56;4.57;;;3.25;;
76881;SDS011;65847;50.998;11.318;2022-12-13T00:54:24;4.35;;;3.10;;
76881;SDS011;65847;50.998;11.318;2022-12-13T00:56:50;4.18;;;3.65;;
76881;SDS011;65847;50.998;11.318;2022-12-13T00:59:16;4.35;;;3.67;;
76881;SDS011;65847;50.998;11.318;2022-12-13T01:01:42;3.83;;;3.33;;
76881;SDS011;65847;50.998;11.318;2022-12-13T01:04:08;4.80;;;3.42;;
76881;SDS011;65847;50.998;11.318;2022-12-13T01:09:02;4.00;;;3.33;;
76881;SDS011;65847;50.998;11.318;2022-12-13T01:11:28;4.45;;;3.28;;
76881;SDS011;65847;50.998;11.318;2022-12-13T01:13:54;5.57;;;3.10;;
76881;SDS011;65847;50.998;11.318;2022-12-13T01:16:20;4.53;;;3.50;;
76881;SDS011;65847;50.998;11.318;2022-12-13T01:18:46;4.85;;;3.15;;
76881;SDS011;65847;50.998;11.318;2022-12-13T01:21:13;5.40;;;3.33;;
76881;SDS011;65847;50.998;11.318;2022-12-13T01:23:40;3.60;;;2.83;;
76881;SDS011;65847;50.998;11.318;2022-12-13T01:26:07;5.25;;;3.20;;
76881;SDS011;65847;50.998;11.318;2022-12-13T01:28:34;4.60;;;2.92;;
76881;SDS011;65847;50.998;11.318;2022-12-13T01:31:01;3.92;;;3.35;;
76881;SDS011;65847;50.998;11.318;2022-12-13T01:33:27;4.15;;;3.00;;
76881;SDS011;65847;50.998;11.318;2022-12-13T01:35:54;3.95;;;3.33;;
76881;SDS011;65847;50.998;11.318;2022-12-13T01:38:20;4.13;;;3.72;;
76881;SDS011;65847;50.998;11.318;2022-12-13T01:40:48;3.45;;;2.78;;
76881;SDS011;65847;50.998;11.318;2022-12-13T01:43:15;3.53;;;3.10;;
76881;SDS011;65847;50.998;11.318;2022-12-13T01:45:41;3.67;;;2.97;;
76881;SDS011;65847;50.998;11.318;2022-12-13T01:48:18;4.05;;;3.17;;
76881;SDS011;65847;50.998;11.318;2022-12-13T01:50:46;3.80;;;2.63;;
76881;SDS011;65847;50.998;11.318;2022-12-13T01:53:16;4.18;;;2.70;;
76881;SDS011;65847;50.998;11.318;2022-12-13T01:55:44;3.15;;;2.53;;
76881;SDS011;65847;50.998;11.318;2022-12-13T02:00:37;3.15;;;2.85;;
76881;SDS011;65847;50.998;11.318;2022-12-13T02:03:03;3.92;;;2.83;;
76881;SDS011;65847;50.998;11.318;2022-12-13T02:07:59;3.55;;;2.70;;
76881;SDS011;65847;50.998;11.318;2022-12-13T02:10:26;3.55;;;2.78;;
76881;SDS011;65847;50.998;11.318;2022-12-13T02:12:52;3.58;;;2.65;;
76881;SDS011;65847;50.998;11.318;2022-12-13T02:15:19;3.60;;;2.70;;
76881;SDS011;65847;50.998;11.318;2022-12-13T02:17:49;3.55;;;2.78;;
76881;SDS011;65847;50.998;11.318;2022-12-13T02:30:24;2.97;;;2.67;;
76881;SDS011;65847;50.998;11.318;2022-12-13T02:37:51;3.22;;;2.72;;
76881;SDS011;65847;50.998;11.318;2022-12-13T02:40:22;3.13;;;2.83;;
76881;SDS011;65847;50.998;11.318;2022-12-13T02:42:58;3.17;;;2.60;;
76881;SDS011;65847;50.998;11.318;2022-12-13T02:45:33;2.90;;;2.60;;
76881;SDS011;65847;50.998;11.318;2022-12-13T02:48:02;3.28;;;2.67;;
76881;SDS011;65847;50.998;11.318;2022-12-13T02:50:30;3.45;;;2.70;;
76881;SDS011;65847;50.998;11.318;2022-12-13T02:52:58;3.03;;;2.47;;
76881;SDS011;65847;50.998;11.318;2022-12-13T02:55:25;2.97;;;2.55;;
76881;SDS011;65847;50.998;11.318;2022-12-13T03:00:19;3.42;;;2.30;;
76881;SDS011;65847;50.998;11.318;2022-12-13T03:10:30;2.97;;;2.67;;
76881;SDS011;65847;50.998;11.318;2022-12-13T03:13:02;3.58;;;2.88;;
76881;SDS011;65847;50.998;11.318;2022-12-13T03:15:56;2.75;;;2.47;;
76881;SDS011;65847;50.998;11.318;2022-12-13T03:18:23;3.63;;;2.50;;
76881;SDS011;65847;50.998;11.318;2022-12-13T03:20:52;4.43;;;3.00;;
76881;SDS011;65847;50.998;11.318;2022-12-13T03:23:19;3.25;;;2.65;;
76881;SDS011;65847;50.998;11.318;2022-12-13T03:25:46;4.05;;;2.47;;
76881;SDS011;65847;50.998;11.318;2022-12-13T03:28:12;3.40;;;2.75;;
76881;SDS011;65847;50.998;11.318;2022-12-13T03:30:38;3.70;;;2.67;;
76881;SDS011;65847;50.998;11.318;2022-12-13T03:33:05;3.65;;;2.67;;
76881;SDS011;65847;50.998;11.318;2022-12-13T03:35:31;3.40;;;2.55;;
76881;SDS011;65847;50.998;11.318;2022-12-13T03:37:57;4.05;;;2.92;;
76881;SDS011;65847;50.998;11.318;2022-12-13T03:40:25;4.30;;;2.92;;
76881;SDS011;65847;50.998;11.318;2022-12-13T03:42:52;4.05;;;2.47;;
76881;SDS011;65847;50.998;11.318;2022-12-13T03:45:18;2.72;;;2.42;;
76881;SDS011;65847;50.998;11.318;2022-12-13T03:47:45;3.40;;;2.40;;
76881;SDS011;65847;50.998;11.318;2022-12-13T03:50:11;2.70;;;2.50;;
76881;SDS011;65847;50.998;11.318;2022-12-13T03:52:37;3.70;;;2.50;;
76881;SDS011;65847;50.998;11.318;2022-12-13T03:55:03;3.67;;;2.88;;
76881;SDS011;65847;50.998;11.318;2022-12-13T03:57:29;3.65;;;2.80;;
76881;SDS011;65847;50.998;11.318;2022-12-13T03:59:55;3.90;;;2.42;;
76881;SDS011;65847;50.998;11.318;2022-12-13T04:02:22;3.42;;;2.60;;
76881;SDS011;65847;50.998;11.318;2022-12-13T04:04:48;3.15;;;2.53;;
76881;SDS011;65847;50.998;11.318;2022-12-13T04:07:14;3.38;;;2.58;;
76881;SDS011;65847;50.998;11.318;2022-12-13T04:09:40;3.28;;;2.70;;
76881;SDS011;65847;50.998;11.318;2022-12-13T04:12:06;3.47;;;2.70;;
76881;SDS011;65847;50.998;11.318;2022-12-13T04:14:50;3.15;;;2.03;;
76881;SDS011;65847;50.998;11.318;2022-12-13T04:17:16;3.08;;;2.33;;
76881;SDS011;65847;50.998;11.318;2022-12-13T04:19:42;3.17;;;2.47;;
76881;SDS011;65847;50.998;11.318;2022-12-13T04:22:09;2.95;;;2.45;;
76881;SDS011;65847;50.998;11.318;2022-12-13T04:24:35;3.25;;;2.70;;
76881;SDS011;65847;50.998;11.318;2022-12-13T04:27:01;3.35;;;2.20;;
76881;SDS011;65847;50.998;11.318;2022-12-13T04:29:28;4.30;;;2.53;;
76881;SDS011;65847;50.998;11.318;2022-12-13T04:31:54;3.35;;;2.60;;
76881;SDS011;65847;50.998;11.318;2022-12-13T04:34:20;3.80;;;2.88;;
76881;SDS011;65847;50.998;11.318;2022-12-13T04:36:46;3.63;;;2.58;;
76881;SDS011;65847;50.998;11.318;2022-12-13T04:39:12;2.85;;;2.65;;
76881;SDS011;65847;50.998;11.318;2022-12-13T04:41:38;2.33;;;2.13;;
76881;SDS011;65847;50.998;11.318;2022-12-13T04:44:05;2.15;;;1.83;;
76881;SDS011;65847;50.998;11.318;2022-12-13T04:48:58;3.05;;;2.25;;
76881;SDS011;65847;50.998;11.318;2022-12-13T04:51:24;4.32;;;2.15;;
76881;SDS011;65847;50.998;11.318;2022-12-13T04:53:50;2.97;;;2.28;;
76881;SDS011;65847;50.998;11.318;2022-12-13T04:56:16;2.85;;;2.17;;
76881;SDS011;65847;50.998;11.318;2022-12-13T04:58:42;3.47;;;2.45;;
76881;SDS011;65847;50.998;11.318;2022-12-13T05:01:09;2.80;;;2.08;;
76881;SDS011;65847;50.998;11.318;2022-12-13T05:03:36;3.42;;;2.20;;
76881;SDS011;65847;50.998;11.318;2022-12-13T05:06:06;3.53;;;2.20;;
76881;SDS011;65847;50.998;11.318;2022-12-13T05:08:32;2.50;;;2.13;;
76881;SDS011;65847;50.998;11.318;2022-12-13T05:10:58;2.58;;;2.20;;
76881;SDS011;65847;50.998;11.318;2022-12-13T05:13:24;2.58;;;2.00;;
76881;SDS011;65847;50.998;11.318;2022-12-13T05:16:08;2.80;;;2.13;;
76881;SDS011;65847;50.998;11.318;2022-12-13T05:21:01;2.45;;;2.10;;
76881;SDS011;65847;50.998;11.318;2022-12-13T05:23:28;4.38;;;2.03;;
76881;SDS011;65847;50.998;11.318;2022-12-13T05:25:54;2.58;;;2.08;;
76881;SDS011;65847;50.998;11.318;2022-12-13T05:28:20;2.30;;;2.05;;
76881;SDS011;65847;50.998;11.318;2022-12-13T05:30:49;3.50;;;2.20;;
76881;SDS011;65847;50.998;11.318;2022-12-13T05:33:16;2.92;;;1.98;;
76881;SDS011;65847;50.998;11.318;2022-12-13T05:35:42;2.72;;;2.08;;
76881;SDS011;65847;50.998;11.318;2022-12-13T05:38:08;2.30;;;1.98;;
76881;SDS011;65847;50.998;11.318;2022-12-13T05:40:34;3.00;;;2.28;;
76881;SDS011;65847;50.998;11.318;2022-12-13T05:43:00;2.13;;;1.80;;
76881;SDS011;65847;50.998;11.318;2022-12-13T05:45:26;2.58;;;2.38;;
76881;SDS011;65847;50.998;11.318;2022-12-13T05:47:52;2.92;;;2.13;;
76881;SDS011;65847;50.998;11.318;2022-12-13T05:50:18;2.58;;;1.92;;
76881;SDS011;65847;50.998;11.318;2022-12-13T05:52:44;2.53;;;1.90;;
76881;SDS011;65847;50.998;11.318;2022-12-13T05:55:10;2.97;;;2.10;;
76881;SDS011;65847;50.998;11.318;2022-12-13T05:57:37;2.30;;;1.73;;
76881;SDS011;65847;50.998;11.318;2022-12-13T06:00:04;2.95;;;2.25;;
76881;SDS011;65847;50.998;11.318;2022-12-13T06:02:30;2.40;;;1.90;;
76881;SDS011;65847;50.998;11.318;2022-12-13T06:04:56;2.88;;;2.10;;
76881;SDS011;65847;50.998;11.318;2022-12-13T06:07:22;3.53;;;2.22;;
76881;SDS011;65847;50.998;11.318;2022-12-13T06:09:48;3.47;;;2.38;;
76881;SDS011;65847;50.998;11.318;2022-12-13T06:12:14;2.63;;;1.95;;
76881;SDS011;65847;50.998;11.318;2022-12-13T06:14:40;1.85;;;1.65;;
76881;SDS011;65847;50.998;11.318;2022-12-13T06:17:06;2.90;;;1.92;;
76881;SDS011;65847;50.998;11.318;2022-12-13T06:19:32;3.08;;;2.30;;
76881;SDS011;65847;50.998;11.318;2022-12-13T06:21:58;3.25;;;2.00;;
76881;SDS011;65847;50.998;11.318;2022-12-13T06:24:24;2.20;;;2.00;;
76881;SDS011;65847;50.998;11.318;2022-12-13T06:26:51;3.08;;;2.00;;
76881;SDS011;65847;50.998;11.318;2022-12-13T06:29:18;2.33;;;1.85;;
76881;SDS011;65847;50.998;11.318;2022-12-13T06:31:44;2.05;;;1.70;;
76881;SDS011;65847;50.998;11.318;2022-12-13T06:34:10;3.28;;;2.33;;
76881;SDS011;65847;50.998;11.318;2022-12-13T06:36:36;1.98;;;1.63;;
76881;SDS011;65847;50.998;11.318;2022-12-13T06:39:06;2.42;;;1.70;;
76881;SDS011;65847;50.998;11.318;2022-12-13T06:41:32;2.30;;;1.73;;
76881;SDS011;65847;50.998;11.318;2022-12-13T06:43:58;2.17;;;1.70;;
76881;SDS011;65847;50.998;11.318;2022-12-13T06:46:25;2.67;;;1.90;;
76881;SDS011;65847;50.998;11.318;2022-12-13T06:48:51;2.40;;;1.80;;
76881;SDS011;65847;50.998;11.318;2022-12-13T06:51:17;3.13;;;2.10;;
76881;SDS011;65847;50.998;11.318;2022-12-13T06:53:44;3.17;;;2.28;;
76881;SDS011;65847;50.998;11.318;2022-12-13T06:56:10;2.45;;;2.03;;
76881;SDS011;65847;50.998;11.318;2022-12-13T06:58:37;2.20;;;2.00;;
76881;SDS011;65847;50.998;11.318;2022-12-13T07:01:05;2.58;;;1.75;;
76881;SDS011;65847;50.998;11.318;2022-12-13T07:03:32;2.10;;;1.67;;
76881;SDS011;65847;50.998;11.318;2022-12-13T07:05:59;2.10;;;1.83;;
76881;SDS011;65847;50.998;11.318;2022-12-13T07:08:25;2.65;;;2.10;;
76881;SDS011;65847;50.998;11.318;2022-12-13T07:10:51;3.72;;;1.67;;
76881;SDS011;65847;50.998;11.318;2022-12-13T07:13:19;1.80;;;1.42;;
76881;SDS011;65847;50.998;11.318;2022-12-13T07:15:45;3.53;;;1.98;;
76881;SDS011;65847;50.998;11.318;2022-12-13T07:18:11;2.78;;;1.73;;
76881;SDS011;65847;50.998;11.318;2022-12-13T07:20:38;3.08;;;1.52;;
76881;SDS011;65847;50.998;11.318;2022-12-13T07:23:04;2.05;;;1.75;;
76881;SDS011;65847;50.998;11.318;2022-12-13T07:25:31;2.70;;;2.00;;
76881;SDS011;65847;50.998;11.318;2022-12-13T07:27:58;1.92;;;1.60;;
76881;SDS011;65847;50.998;11.318;2022-12-13T07:30:24;2.60;;;1.67;;
76881;SDS011;65847;50.998;11.318;2022-12-13T07:32:50;2.42;;;1.67;;
76881;SDS011;65847;50.998;11.318;2022-12-13T07:35:16;2.55;;;1.95;;
76881;SDS011;65847;50.998;11.318;2022-12-13T07:37:43;2.45;;;1.70;;
76881;SDS011;65847;50.998;11.318;2022-12-13T07:40:09;3.65;;;1.83;;
76881;SDS011;65847;50.998;11.318;2022-12-13T07:42:35;4.60;;;1.98;;
76881;SDS011;65847;50.998;11.318;2022-12-13T07:45:01;3.38;;;1.73;;
76881;SDS011;65847;50.998;11.318;2022-12-13T07:47:28;2.35;;;1.52;;
76881;SDS011;65847;50.998;11.318;2022-12-13T07:49:55;2.05;;;1.52;;
76881;SDS011;65847;50.998;11.318;2022-12-13T07:52:21;3.75;;;2.13;;
76881;SDS011;65847;50.998;11.318;2022-12-13T07:54:47;3.25;;;2.05;;
76881;SDS011;65847;50.998;11.318;2022-12-13T07:57:13;2.65;;;1.60;;
76881;SDS011;65847;50.998;11.318;2022-12-13T07:59:39;2.50;;;1.70;;
76881;SDS011;65847;50.998;11.318;2022-12-13T08:02:05;2.35;;;1.80;;
76881;SDS011;65847;50.998;11.318;2022-12-13T08:04:31;3.70;;;1.80;;
76881;SDS011;65847;50.998;11.318;2022-12-13T08:06:57;2.72;;;1.95;;
76881;SDS011;65847;50.998;11.318;2022-12-13T08:09:23;3.88;;;2.35;;
76881;SDS011;65847;50.998;11.318;2022-12-13T08:11:49;3.58;;;1.92;;
76881;SDS011;65847;50.998;11.318;2022-12-13T08:14:15;2.58;;;1.80;;
76881;SDS011;65847;50.998;11.318;2022-12-13T08:19:34;3.72;;;1.67;;
76881;SDS011;65847;50.998;11.318;2022-12-13T08:22:00;3.60;;;1.85;;
76881;SDS011;65847;50.998;11.318;2022-12-13T08:24:27;3.75;;;2.10;;
76881;SDS011;65847;50.998;11.318;2022-12-13T08:26:54;2.60;;;1.90;;
76881;SDS011;65847;50.998;11.318;2022-12-13T08:29:21;2.70;;;1.92;;
76881;SDS011;65847;50.998;11.318;2022-12-13T08:31:47;4.65;;;2.20;;
76881;SDS011;65847;50.998;11.318;2022-12-13T08:34:13;3.35;;;2.42;;
76881;SDS011;65847;50.998;11.318;2022-12-13T08:36:39;3.83;;;2.33;;
76881;SDS011;65847;50.998;11.318;2022-12-13T08:39:05;6.43;;;2.72;;
76881;SDS011;65847;50.998;11.318;2022-12-13T08:41:31;4.65;;;2.30;;
76881;SDS011;65847;50.998;11.318;2022-12-13T08:43:57;7.47;;;2.67;;
76881;SDS011;65847;50.998;11.318;2022-12-13T08:46:23;4.78;;;3.22;;
76881;SDS011;65847;50.998;11.318;2022-12-13T08:48:51;4.30;;;2.58;;
76881;SDS011;65847;50.998;11.318;2022-12-13T08:51:17;5.13;;;2.47;;
76881;SDS011;65847;50.998;11.318;2022-12-13T08:53:49;3.40;;;2.83;;
76881;SDS011;65847;50.998;11.318;2022-12-13T08:56:15;3.83;;;2.42;;
76881;SDS011;65847;50.998;11.318;2022-12-13T08:58:42;4.65;;;2.78;;
76881;SDS011;65847;50.998;11.318;2022-12-13T09:01:09;7.10;;;2.25;;
76881;SDS011;65847;50.998;11.318;2022-12-13T09:03:35;4.60;;;2.88;;
76881;SDS011;65847;50.998;11.318;2022-12-13T09:06:05;3.83;;;3.05;;
76881;SDS011;65847;50.998;11.318;2022-12-13T09:08:31;4.22;;;2.97;;
76881;SDS011;65847;50.998;11.318;2022-12-13T09:10:58;4.70;;;3.08;;
76881;SDS011;65847;50.998;11.318;2022-12-13T09:13:24;6.72;;;3.20;;
76881;SDS011;65847;50.998;11.318;2022-12-13T09:15:50;5.97;;;3.50;;
76881;SDS011;65847;50.998;11.318;2022-12-13T09:18:17;8.55;;;3.00;;
76881;SDS011;65847;50.998;11.318;2022-12-13T09:20:43;6.00;;;3.45;;
76881;SDS011;65847;50.998;11.318;2022-12-13T09:23:09;5.05;;;3.60;;
76881;SDS011;65847;50.998;11.318;2022-12-13T09:25:35;4.68;;;2.78;;
76881;SDS011;65847;50.998;11.318;2022-12-13T09:28:02;7.03;;;2.65;;
76881;SDS011;65847;50.998;11.318;2022-12-13T09:30:29;4.22;;;3.00;;
76881;SDS011;65847;50.998;11.318;2022-12-13T09:32:55;71.45;;;12.88;;
76881;SDS011;65847;50.998;11.318;2022-12-13T09:35:21;45.50;;;12.32;;
76881;SDS011;65847;50.998;11.318;2022-12-13T09:37:47;29.90;;;10.23;;
76881;SDS011;65847;50.998;11.318;2022-12-13T09:40:22;33.75;;;9.75;;
76881;SDS011;65847;50.998;11.318;2022-12-13T09:42:49;30.02;;;10.63;;
76881;SDS011;65847;50.998;11.318;2022-12-13T09:45:17;31.15;;;10.20;;
76881;SDS011;65847;50.998;11.318;2022-12-13T09:47:44;22.45;;;9.95;;
76881;SDS011;65847;50.998;11.318;2022-12-13T09:50:13;27.83;;;9.23;;
76881;SDS011;65847;50.998;11.318;2022-12-13T09:52:40;24.00;;;8.93;;
76881;SDS011;65847;50.998;11.318;2022-12-13T09:55:41;25.60;;;8.80;;
76881;SDS011;65847;50.998;11.318;2022-12-13T09:57:59;21.05;;;8.45;;
76881;SDS011;65847;50.998;11.318;2022-12-13T10:00:34;19.13;;;8.73;;
76881;SDS011;65847;50.998;11.318;2022-12-13T10:03:00;25.98;;;8.93;;
76881;SDS011;65847;50.998;11.318;2022-12-13T10:05:31;19.85;;;9.63;;
76881;SDS011;65847;50.998;11.318;2022-12-13T10:07:58;18.45;;;7.90;;
76881;SDS011;65847;50.998;11.318;2022-12-13T10:10:25;20.25;;;7.72;;
76881;SDS011;65847;50.998;11.318;2022-12-13T10:12:57;20.42;;;8.05;;
76881;SDS011;65847;50.998;11.318;2022-12-13T10:15:26;21.30;;;8.60;;
76881;SDS011;65847;50.998;11.318;2022-12-13T10:17:52;18.08;;;8.88;;
76881;SDS011;65847;50.998;11.318;2022-12-13T10:20:21;19.15;;;7.85;;
76881;SDS011;65847;50.998;11.318;2022-12-13T10:25:53;17.02;;;6.68;;
76881;SDS011;65847;50.998;11.318;2022-12-13T10:28:41;17.27;;;7.72;;
76881;SDS011;65847;50.998;11.318;2022-12-13T10:31:20;16.48;;;7.60;;
76881;SDS011;65847;50.998;11.318;2022-12-13T10:33:49;21.70;;;7.85;;
76881;SDS011;65847;50.998;11.318;2022-12-13T10:36:33;17.17;;;7.03;;
76881;SDS011;65847;50.998;11.318;2022-12-13T10:39:02;16.25;;;7.10;;
76881;SDS011;65847;50.998;11.318;2022-12-13T10:41:30;20.15;;;7.55;;
76881;SDS011;65847;50.998;11.318;2022-12-13T10:46:58;15.82;;;6.63;;
76881;SDS011;65847;50.998;11.318;2022-12-13T10:49:34;14.43;;;6.40;;
76881;SDS011;65847;50.998;11.318;2022-12-13T10:52:06;17.50;;;7.60;;
76881;SDS011;65847;50.998;11.318;2022-12-13T10:54:44;15.18;;;7.00;;
76881;SDS011;65847;50.998;11.318;2022-12-13T10:57:22;15.57;;;6.72;;
76881;SDS011;65847;50.998;11.318;2022-12-13T10:59:55;15.23;;;6.95;;
76881;SDS011;65847;50.998;11.318;2022-12-13T11:05:40;17.17;;;6.50;;
76881;SDS011;65847;50.998;11.318;2022-12-13T11:08:37;13.77;;;6.30;;
76881;SDS011;65847;50.998;11.318;2022-12-13T11:14:00;15.82;;;7.45;;
76881;SDS011;65847;50.998;11.318;2022-12-13T11:19:47;11.93;;;5.88;;
76881;SDS011;65847;50.998;11.318;2022-12-13T11:22:18;15.93;;;6.47;;
76881;SDS011;65847;50.998;11.318;2022-12-13T11:24:48;15.98;;;6.45;;
76881;SDS011;65847;50.998;11.318;2022-12-13T11:32:54;15.07;;;7.18;;
76881;SDS011;65847;50.998;11.318;2022-12-13T11:35:25;13.23;;;6.47;;
76881;SDS011;65847;50.998;11.318;2022-12-13T11:38:01;14.07;;;5.75;;
76881;SDS011;65847;50.998;11.318;2022-12-13T11:40:32;10.98;;;5.25;;
76881;SDS011;65847;50.998;11.318;2022-12-13T11:45:38;12.32;;;6.38;;
76881;SDS011;65847;50.998;11.318;2022-12-13T11:53:19;8.98;;;5.00;;
76881;SDS011;65847;50.998;11.318;2022-12-13T11:55:48;12.10;;;5.68;;
76881;SDS011;65847;50.998;11.318;2022-12-13T12:01:28;10.98;;;5.20;;
76881;SDS011;65847;50.998;11.318;2022-12-13T12:12:40;9.45;;;5.50;;
76881;SDS011;65847;50.998;11.318;2022-12-13T12:15:33;10.48;;;4.70;;
76881;SDS011;65847;50.998;11.318;2022-12-13T12:18:32;11.07;;;5.07;;
76881;SDS011;65847;50.998;11.318;2022-12-13T12:50:46;9.50;;;4.57;;
76881;SDS011;65847;50.998;11.318;2022-12-13T12:53:40;9.52;;;5.32;;
76881;SDS011;65847;50.998;11.318;2022-12-13T13:03:47;7.80;;;4.78;;
76881;SDS011;65847;50.998;11.318;2022-12-13T13:11:12;8.75;;;4.70;;
76881;SDS011;65847;50.998;11.318;2022-12-13T13:21:51;7.50;;;4.53;;
76881;SDS011;65847;50.998;11.318;2022-12-13T13:24:25;7.90;;;4.97;;
76881;SDS011;65847;50.998;11.318;2022-12-13T13:26:56;8.35;;;4.38;;
76881;SDS011;65847;50.998;11.318;2022-12-13T13:37:02;7.13;;;4.05;;
76881;SDS011;65847;50.998;11.318;2022-12-13T14:31:21;5.43;;;4.05;;
76881;SDS011;65847;50.998;11.318;2022-12-13T14:33:48;6.00;;;3.72;;
76881;SDS011;65847;50.998;11.318;2022-12-13T14:36:16;6.85;;;4.05;;
76881;SDS011;65847;50.998;11.318;2022-12-13T14:38:43;5.90;;;3.67;;
76881;SDS011;65847;50.998;11.318;2022-12-13T14:47:41;6.60;;;3.80;;
76881;SDS011;65847;50.998;11.318;2022-12-13T14:50:10;5.28;;;3.42;;
76881;SDS011;65847;50.998;11.318;2022-12-13T14:52:37;6.18;;;3.47;;
76881;SDS011;65847;50.998;11.318;2022-12-13T14:55:04;7.97;;;3.75;;
76881;SDS011;65847;50.998;11.318;2022-12-13T14:57:31;5.32;;;3.28;;
76881;SDS011;65847;50.998;11.318;2022-12-13T15:00:40;5.97;;;3.40;;
76881;SDS011;65847;50.998;11.318;2022-12-13T15:02:53;6.45;;;3.40;;
76881;SDS011;65847;50.998;11.318;2022-12-13T15:06:00;6.10;;;3.92;;
76881;SDS011;65847;50.998;11.318;2022-12-13T15:08:59;5.05;;;3.33;;
76881;SDS011;65847;50.998;11.318;2022-12-13T15:15:02;4.82;;;3.67;;
76881;SDS011;65847;50.998;11.318;2022-12-13T15:24:13;4.80;;;2.80;;
76881;SDS011;65847;50.998;11.318;2022-12-13T15:26:45;5.97;;;3.17;;
76881;SDS011;65847;50.998;11.318;2022-12-13T15:33:00;5.32;;;3.10;;
76881;SDS011;65847;50.998;11.318;2022-12-13T15:38:35;4.70;;;3.28;;
76881;SDS011;65847;50.998;11.318;2022-12-13T15:41:02;5.90;;;4.45;;
76881;SDS011;65847;50.998;11.318;2022-12-13T15:43:35;6.22;;;3.35;;
76881;SDS011;65847;50.998;11.318;2022-12-13T15:46:02;4.07;;;3.35;;
76881;SDS011;65847;50.998;11.318;2022-12-13T15:48:32;4.28;;;3.10;;
76881;SDS011;65847;50.998;11.318;2022-12-13T15:53:31;4.43;;;3.17;;
76881;SDS011;65847;50.998;11.318;2022-12-13T15:55:58;5.55;;;3.70;;
76881;SDS011;65847;50.998;11.318;2022-12-13T15:58:25;5.82;;;3.60;;
76881;SDS011;65847;50.998;11.318;2022-12-13T16:03:44;4.32;;;3.20;;
76881;SDS011;65847;50.998;11.318;2022-12-13T16:08:37;8.18;;;4.00;;
76881;SDS011;65847;50.998;11.318;2022-12-13T16:11:05;4.32;;;2.65;;
76881;SDS011;65847;50.998;11.318;2022-12-13T16:13:35;4.25;;;2.90;;
76881;SDS011;65847;50.998;11.318;2022-12-13T16:18:44;3.15;;;2.45;;
76881;SDS011;65847;50.998;11.318;2022-12-13T16:21:10;3.83;;;2.50;;
76881;SDS011;65847;50.998;11.318;2022-12-13T16:23:38;4.32;;;2.97;;
76881;SDS011;65847;50.998;11.318;2022-12-13T16:26:04;5.18;;;2.90;;
76881;SDS011;65847;50.998;11.318;2022-12-13T16:28:30;4.43;;;2.60;;
76881;SDS011;65847;50.998;11.318;2022-12-13T16:31:01;8.98;;;4.15;;
76881;SDS011;65847;50.998;11.318;2022-12-13T16:33:27;7.32;;;2.92;;
76881;SDS011;65847;50.998;11.318;2022-12-13T16:35:54;3.97;;;3.05;;
76881;SDS011;65847;50.998;11.318;2022-12-13T16:38:20;3.30;;;2.28;;
76881;SDS011;65847;50.998;11.318;2022-12-13T16:40:46;3.30;;;2.72;;
76881;SDS011;65847;50.998;11.318;2022-12-13T16:45:40;4.40;;;3.05;;
76881;SDS011;65847;50.998;11.318;2022-12-13T16:48:10;4.13;;;3.10;;
76881;SDS011;65847;50.998;11.318;2022-12-13T16:50:39;5.18;;;2.88;;
76881;SDS011;65847;50.998;11.318;2022-12-13T16:53:06;2.97;;;2.50;;
76881;SDS011;65847;50.998;11.318;2022-12-13T16:55:32;4.03;;;2.97;;
76881;SDS011;65847;50.998;11.318;2022-12-13T16:58:05;4.07;;;2.70;;
76881;SDS011;65847;50.998;11.318;2022-12-13T17:00:32;3.28;;;2.65;;
76881;SDS011;65847;50.998;11.318;2022-12-13T17:02:58;2.85;;;2.40;;
76881;SDS011;65847;50.998;11.318;2022-12-13T17:05:25;3.85;;;2.72;;
76881;SDS011;65847;50.998;11.318;2022-12-13T17:07:52;3.33;;;2.78;;
76881;SDS011;65847;50.998;11.318;2022-12-13T17:10:18;3.40;;;2.50;;
76881;SDS011;65847;50.998;11.318;2022-12-13T17:12:44;3.53;;;2.60;;
76881;SDS011;65847;50.998;11.318;2022-12-13T17:15:10;3.25;;;2.38;;
76881;SDS011;65847;50.998;11.318;2022-12-13T17:17:40;3.78;;;2.70;;
76881;SDS011;65847;50.998;11.318;2022-12-13T17:20:07;3.92;;;2.65;;
76881;SDS011;65847;50.998;11.318;2022-12-13T17:22:34;3.33;;;2.47;;
76881;SDS011;65847;50.998;11.318;2022-12-13T17:25:00;4.22;;;3.00;;
76881;SDS011;65847;50.998;11.318;2022-12-13T17:27:26;3.65;;;2.97;;
76881;SDS011;65847;50.998;11.318;2022-12-13T17:29:57;6.43;;;2.90;;
76881;SDS011;65847;50.998;11.318;2022-12-13T17:32:26;3.80;;;3.30;;
76881;SDS011;65847;50.998;11.318;2022-12-13T17:34:56;3.72;;;3.15;;
76881;SDS011;65847;50.998;11.318;2022-12-13T17:37:22;5.13;;;3.05;;
76881;SDS011;65847;50.998;11.318;2022-12-13T17:39:48;5.00;;;2.60;;
76881;SDS011;65847;50.998;11.318;2022-12-13T17:42:14;3.50;;;2.72;;
76881;SDS011;65847;50.998;11.318;2022-12-13T17:44:41;3.67;;;2.63;;
76881;SDS011;65847;50.998;11.318;2022-12-13T17:47:07;4.00;;;2.83;;
76881;SDS011;65847;50.998;11.318;2022-12-13T17:49:33;3.40;;;2.92;;
76881;SDS011;65847;50.998;11.318;2022-12-13T17:51:59;4.25;;;2.95;;
76881;SDS011;65847;50.998;11.318;2022-12-13T17:54:25;4.35;;;2.85;;
76881;SDS011;65847;50.998;11.318;2022-12-13T17:56:52;3.33;;;2.78;;
76881;SDS011;65847;50.998;11.318;2022-12-13T17:59:19;3.83;;;2.63;;
76881;SDS011;65847;50.998;11.318;2022-12-13T18:01:45;3.90;;;2.55;;
76881;SDS011;65847;50.998;11.318;2022-12-13T18:04:11;3.83;;;2.88;;
76881;SDS011;65847;50.998;11.318;2022-12-13T18:09:34;3.72;;;2.55;;
76881;SDS011;65847;50.998;11.318;2022-12-13T18:12:00;3.40;;;2.55;;
76881;SDS011;65847;50.998;11.318;2022-12-13T18:14:26;3.10;;;2.80;;
76881;SDS011;65847;50.998;11.318;2022-12-13T18:16:53;4.00;;;2.72;;
76881;SDS011;65847;50.998;11.318;2022-12-13T18:19:19;3.45;;;2.70;;
76881;SDS011;65847;50.998;11.318;2022-12-13T18:21:45;2.92;;;2.58;;
76881;SDS011;65847;50.998;11.318;2022-12-13T18:24:12;3.25;;;2.47;;
76881;SDS011;65847;50.998;11.318;2022-12-13T18:26:38;3.30;;;2.45;;
76881;SDS011;65847;50.998;11.318;2022-12-13T18:29:05;3.47;;;2.53;;